createdAt,value
2022-08-09T00:00:12.129Z,64.33
2022-08-09T00:02:22.447Z,64.17
2022-08-09T00:04:35.714Z,64.26
2022-08-09T00:06:49.659Z,65.44
2022-08-09T00:08:57.013Z,66.95
2022-08-09T00:11:05.774Z,67.47
2022-08-09T00:13:23.910Z,66.34
2022-08-09T00:15:58.163Z,66.07
2022-08-09T00:18:05.425Z,66.47
2022-08-09T00:20:13.638Z,66.46
2022-08-09T00:22:35.029Z,66.63
2022-08-09T00:24:39.177Z,67.28
2022-08-09T00:26:49.612Z,66.63
2022-08-09T00:28:53.618Z,67.63
2022-08-09T00:31:30.658Z,69.27
2022-08-09T00:33:51.122Z,71.44
2022-08-09T00:36:01.163Z,74.78
2022-08-09T00:38:04.513Z,77.23
2022-08-09T00:40:12.162Z,78.39
2022-08-09T00:44:10.202Z,76.65
2022-08-09T00:44:46.962Z,77.32
2022-08-09T00:47:05.646Z,79.56
2022-08-09T00:49:07.929Z,79.90
2022-08-09T00:51:17.825Z,78.50
2022-08-09T00:53:28.032Z,78.91
2022-08-09T00:56:05.072Z,77.35
2022-08-09T00:58:22.154Z,77.02
2022-08-09T01:00:55.435Z,77.99
2022-08-09T01:03:45.591Z,74.11
2022-08-09T01:06:18.019Z,73.83
2022-08-09T01:08:26.664Z,71.16
2022-08-09T01:11:09.857Z,70.96
2022-08-09T01:13:42.046Z,70.63
2022-08-09T01:15:58.295Z,72.11
2022-08-09T01:18:08.459Z,74.35
2022-08-09T01:20:18.115Z,74.33
2022-08-09T01:22:54.691Z,78.56
2022-08-09T01:25:19.570Z,77.67
2022-08-09T01:27:39.145Z,78.26
2022-08-09T01:29:55.507Z,76.43
2022-08-09T01:32:31.429Z,72.29
2022-08-09T01:34:31.589Z,71.77
2022-08-09T01:36:36.679Z,70.28
2022-08-09T01:38:48.149Z,69.84
2022-08-09T01:41:19.214Z,70.26
2022-08-09T01:43:42.042Z,69.15
2022-08-09T01:45:59.610Z,69.89
2022-08-09T01:48:05.983Z,69.68
2022-08-09T01:50:16.382Z,70.51
2022-08-09T01:52:22.680Z,71.08
2022-08-09T01:54:57.095Z,70.58
2022-08-09T01:57:21.687Z,70.65
2022-08-09T01:59:52.088Z,71.02
2022-08-09T02:02:01.021Z,70.13
2022-08-09T02:04:05.405Z,70.99
2022-08-09T02:06:45.526Z,69.46
2022-08-09T02:08:59.871Z,70.84
2022-08-09T02:11:16.809Z,72.20
2022-08-09T02:13:25.958Z,72.80
2022-08-09T02:15:57.249Z,73.35
2022-08-09T02:18:10.419Z,73.75
2022-08-09T02:20:15.738Z,77.78
2022-08-09T02:23:13.557Z,79.44
2022-08-09T02:25:23.975Z,80.23
2022-08-09T02:28:04.099Z,78.42
2022-08-09T02:30:10.664Z,80.27
2022-08-09T02:32:16.966Z,80.82
2022-08-09T02:34:41.014Z,80.83
2022-08-09T02:37:00.559Z,81.83
2022-08-09T02:39:07.444Z,82.33
2022-08-09T02:41:58.270Z,81.47
2022-08-09T02:44:25.543Z,81.06
2022-08-09T02:46:36.260Z,81.12
2022-08-09T02:48:46.124Z,80.84
2022-08-09T02:50:56.449Z,81.73
2022-08-09T02:53:03.686Z,83.25
2022-08-09T02:55:21.155Z,83.41
2022-08-09T02:57:25.528Z,84.25
2022-08-09T02:59:37.556Z,85.14
2022-08-09T03:02:05.533Z,86.78
2022-08-09T03:04:19.374Z,87.82
2022-08-09T03:06:34.157Z,87.52
2022-08-09T03:08:39.606Z,87.94
2022-08-09T03:10:50.944Z,86.98
2022-08-09T03:12:54.967Z,87.03
2022-08-09T03:15:09.810Z,87.38
2022-08-09T03:17:20.461Z,87.95
2022-08-09T03:19:58.593Z,86.49
2022-08-09T03:21:58.212Z,86.04
2022-08-09T03:24:05.277Z,86.54
2022-08-09T03:26:09.353Z,87.39
2022-08-09T03:28:15.090Z,86.85
2022-08-09T03:30:32.996Z,85.93
2022-08-09T03:32:45.722Z,85.77
2022-08-09T03:34:48.260Z,84.16
2022-08-09T03:37:02.263Z,83.15
2022-08-09T03:39:12.894Z,83.12
2022-08-09T03:41:18.696Z,83.52
2022-08-09T03:43:32.121Z,84.43
2022-08-09T03:46:04.983Z,84.33
2022-08-09T03:47:58.507Z,84.26
2022-08-09T03:50:05.576Z,82.81
2022-08-09T03:52:18.690Z,82.86
2022-08-09T03:54:29.425Z,82.21
2022-08-09T03:56:31.972Z,81.99
2022-08-09T03:58:50.616Z,82.23
2022-08-09T04:01:07.116Z,81.62
2022-08-09T04:03:19.563Z,81.89
2022-08-09T04:05:29.028Z,82.52
2022-08-09T04:08:03.985Z,82.71
2022-08-09T04:10:29.049Z,83.42
2022-08-09T04:13:14.116Z,83.05
2022-08-09T04:15:38.874Z,83.04
2022-08-09T04:17:57.963Z,82.38
2022-08-09T04:20:11.480Z,82.43
2022-08-09T04:22:16.630Z,82.59
2022-08-09T04:24:20.301Z,84.00
2022-08-09T04:26:47.792Z,83.35
2022-08-09T04:29:09.688Z,84.26
2022-08-09T04:31:16.408Z,84.43
2022-08-09T04:33:18.312Z,83.50
2022-08-09T04:35:22.277Z,83.87
2022-08-09T04:37:45.306Z,82.91
2022-08-09T04:39:53.993Z,83.22
2022-08-09T04:41:59.760Z,83.54
2022-08-09T04:44:11.030Z,85.21
2022-08-09T04:46:56.934Z,85.26
2022-08-09T04:48:57.522Z,85.81
2022-08-09T04:51:01.672Z,86.93
2022-08-09T04:53:32.751Z,85.77
2022-08-09T04:55:40.435Z,84.54
2022-08-09T04:58:01.914Z,83.66
2022-08-09T05:00:12.307Z,83.83
2022-08-09T05:02:21.813Z,83.77
2022-08-09T05:04:33.290Z,82.34
2022-08-09T05:06:37.220Z,81.32
2022-08-09T05:08:39.500Z,81.95
2022-08-09T05:10:46.074Z,81.47
2022-08-09T05:12:48.025Z,81.69
2022-08-09T05:14:54.019Z,82.06
2022-08-09T05:17:00.163Z,80.93
2022-08-09T05:19:03.264Z,81.89
2022-08-09T05:21:10.045Z,82.16
2022-08-09T05:23:54.495Z,82.01
2022-08-09T05:25:54.092Z,80.86
2022-08-09T05:27:58.852Z,80.92
2022-08-09T05:30:06.117Z,80.00
2022-08-09T05:32:08.830Z,80.20
2022-08-09T05:34:16.384Z,79.43
2022-08-09T05:36:20.212Z,79.12
2022-08-09T05:38:32.600Z,78.98
2022-08-09T05:40:34.499Z,78.78
2022-08-09T05:42:36.607Z,78.89
2022-08-09T05:44:55.088Z,78.77
2022-08-09T05:47:01.087Z,77.96
2022-08-09T05:49:08.024Z,78.36
2022-08-09T05:51:45.816Z,78.58
2022-08-09T05:53:57.506Z,78.03
2022-08-09T05:56:04.365Z,79.38
2022-08-09T05:58:09.068Z,78.46
2022-08-09T06:00:32.955Z,77.99
2022-08-09T06:02:37.188Z,76.73
2022-08-09T06:04:50.250Z,77.25
2022-08-09T06:06:52.361Z,76.32
2022-08-09T06:09:40.879Z,76.94
2022-08-09T06:11:57.470Z,76.63
2022-08-09T06:13:59.928Z,75.58
2022-08-09T06:16:14.078Z,76.57
2022-08-09T06:18:24.891Z,72.55
2022-08-09T06:20:28.696Z,74.18
2022-08-09T06:22:33.755Z,73.12
2022-08-09T06:24:39.698Z,74.16
2022-08-09T06:26:43.606Z,71.95
2022-08-09T06:29:00.790Z,73.21
2022-08-09T06:31:14.475Z,72.42
2022-08-09T06:33:39.958Z,73.23
2022-08-09T06:35:57.491Z,71.83
2022-08-09T06:38:19.983Z,70.51
2022-08-09T06:40:35.069Z,70.84
2022-08-09T06:42:44.982Z,72.17
2022-08-09T06:44:51.758Z,73.41
2022-08-09T06:46:56.570Z,72.39
2022-08-09T06:49:00.481Z,72.87
2022-08-09T06:51:07.010Z,72.10
2022-08-09T06:53:19.958Z,72.52
2022-08-09T06:55:30.283Z,71.75
2022-08-09T06:57:42.731Z,67.13
2022-08-09T07:00:56.943Z,67.16
2022-08-09T07:02:31.107Z,66.14
2022-08-09T07:04:35.131Z,66.12
2022-08-09T07:06:37.438Z,68.15
2022-08-09T07:08:40.354Z,67.75
2022-08-09T07:10:51.522Z,66.54
2022-08-09T07:12:57.235Z,65.79
2022-08-09T07:15:54.015Z,65.50
2022-08-09T07:18:11.877Z,66.69
2022-08-09T07:20:17.326Z,65.75
2022-08-09T07:22:34.312Z,64.06
2022-08-09T07:24:44.553Z,64.90
2022-08-09T07:26:53.657Z,66.17
2022-08-09T07:29:25.744Z,65.06
2022-08-09T07:31:38.206Z,66.03
2022-08-09T07:33:52.968Z,65.42
2022-08-09T07:36:04.027Z,64.23
2022-08-09T07:38:14.409Z,63.18
2022-08-09T07:40:27.131Z,62.09
2022-08-09T07:43:16.595Z,64.40
2022-08-09T07:45:40.361Z,64.89
2022-08-09T07:48:00.553Z,61.73
2022-08-09T07:50:09.563Z,60.10
2022-08-09T07:52:42.968Z,60.50
2022-08-09T07:54:45.220Z,60.67
2022-08-09T07:56:54.132Z,61.45
2022-08-09T07:58:56.511Z,59.28
2022-08-09T08:01:25.434Z,58.10
2022-08-09T08:03:43.309Z,58.83
2022-08-09T08:05:53.969Z,58.76
2022-08-09T08:09:01.673Z,60.10
2022-08-09T08:10:21.841Z,59.96
2022-08-09T08:12:45.511Z,56.94
2022-08-09T08:14:48.593Z,56.66
2022-08-09T08:17:35.040Z,56.81
2022-08-09T08:19:53.459Z,55.38
2022-08-09T08:21:59.308Z,56.45
2022-08-09T08:24:12.219Z,56.83
2022-08-09T08:26:26.749Z,55.77
2022-08-09T08:28:50.868Z,56.96
2022-08-09T08:31:14.111Z,56.00
2022-08-09T08:33:23.709Z,55.99
2022-08-09T08:35:36.970Z,56.43
2022-08-09T08:37:59.551Z,58.72
2022-08-09T08:40:12.301Z,58.81
2022-08-09T08:42:18.189Z,58.57
2022-08-09T08:44:44.938Z,58.27
2022-08-09T08:47:02.139Z,58.90
2022-08-09T08:49:12.863Z,57.05
2022-08-09T08:51:23.198Z,57.35
2022-08-09T08:53:32.091Z,58.77
2022-08-09T08:55:34.206Z,60.09
2022-08-09T08:57:42.611Z,61.41
2022-08-09T08:59:47.183Z,60.02
2022-08-09T09:02:30.924Z,57.96
2022-08-09T09:04:48.098Z,59.83
2022-08-09T09:07:07.854Z,59.96
2022-08-09T09:09:21.327Z,57.97
2022-08-09T09:11:43.302Z,59.47
2022-08-09T09:13:58.492Z,59.97
2022-08-09T09:16:04.151Z,58.51
2022-08-09T09:18:16.127Z,57.77
2022-08-09T09:20:21.253Z,59.33
2022-08-09T09:22:28.820Z,57.82
2022-08-09T09:26:01.879Z,58.16
2022-08-09T09:29:02.334Z,58.25
2022-08-09T09:31:17.296Z,58.54
2022-08-09T09:33:44.643Z,57.40
2022-08-09T09:36:11.735Z,59.39
2022-08-09T09:38:27.778Z,58.22
2022-08-09T09:40:46.812Z,59.62
2022-08-09T09:43:15.315Z,57.54
2022-08-09T09:45:26.129Z,58.40
2022-08-09T09:47:32.519Z,58.31
2022-08-09T09:50:07.249Z,57.87
2022-08-09T09:52:33.423Z,56.15
2022-08-09T09:55:24.469Z,54.57
2022-08-09T09:58:04.218Z,54.40
2022-08-09T10:00:28.060Z,54.02
2022-08-09T10:02:53.367Z,52.35
2022-08-09T10:05:10.563Z,53.20
2022-08-09T10:08:10.880Z,53.36
2022-08-09T10:10:13.457Z,54.46
2022-08-09T10:12:35.275Z,53.19
2022-08-09T10:14:48.647Z,52.58
2022-08-09T10:17:40.101Z,54.59
2022-08-09T10:19:57.422Z,53.33
2022-08-09T10:22:03.969Z,55.46
2022-08-09T10:24:09.670Z,53.61
2022-08-09T10:26:20.795Z,53.66
2022-08-09T10:28:28.694Z,52.42
2022-08-09T10:33:10.644Z,52.35
2022-08-09T10:35:39.820Z,51.19
2022-08-09T10:37:57.790Z,52.32
2022-08-09T10:40:01.361Z,48.43
2022-08-09T10:42:34.907Z,49.89
2022-08-09T10:44:39.966Z,50.97
2022-08-09T10:47:00.536Z,52.64
2022-08-09T10:49:50.134Z,51.38
2022-08-09T10:51:54.344Z,50.08
2022-08-09T10:54:12.306Z,50.16
2022-08-09T10:56:23.375Z,49.21
2022-08-09T10:58:51.783Z,48.31
2022-08-09T11:03:02.233Z,50.17
2022-08-09T11:03:49.915Z,50.24
2022-08-09T11:06:15.728Z,48.48
2022-08-09T11:08:47.364Z,46.51
2022-08-09T11:11:08.833Z,47.08
2022-08-09T11:13:50.608Z,46.71
2022-08-09T11:16:38.927Z,47.46
2022-08-09T11:18:48.434Z,46.91
2022-08-09T11:20:50.487Z,48.10
2022-08-09T11:23:07.014Z,48.22
2022-08-09T11:25:26.143Z,46.47
2022-08-09T11:28:30.519Z,47.58
2022-08-09T11:30:49.659Z,49.45
2022-08-09T11:33:11.544Z,47.41
2022-08-09T11:35:50.211Z,47.67
2022-08-09T11:38:15.202Z,46.24
2022-08-09T11:40:25.066Z,47.43
2022-08-09T11:42:48.436Z,48.60
2022-08-09T11:44:53.317Z,49.40
2022-08-09T11:47:01.082Z,48.61
2022-08-09T11:49:17.003Z,44.90
2022-08-09T11:53:03.991Z,46.43
2022-08-09T11:54:29.733Z,45.58
2022-08-09T11:56:51.583Z,47.55
2022-08-09T11:59:01.827Z,48.65
2022-08-09T12:02:01.166Z,48.88
2022-08-09T12:03:57.272Z,47.62
2022-08-09T12:06:14.897Z,44.96
2022-08-09T12:08:22.138Z,46.51
2022-08-09T12:10:38.391Z,45.42
2022-08-09T12:12:55.140Z,46.69
2022-08-09T12:15:07.281Z,44.74
2022-08-09T12:17:34.611Z,44.58
2022-08-09T12:19:45.622Z,43.92
2022-08-09T12:21:55.513Z,45.52
2022-08-09T12:24:09.125Z,45.28
2022-08-09T12:26:12.481Z,46.40
2022-08-09T12:29:12.069Z,46.99
2022-08-09T12:30:49.218Z,49.04
2022-08-09T12:33:01.696Z,49.01
2022-08-09T12:35:11.021Z,49.20
2022-08-09T12:37:50.768Z,48.67
2022-08-09T12:40:20.714Z,47.41
2022-08-09T12:42:23.666Z,46.96
2022-08-09T12:44:27.927Z,47.10
2022-08-09T12:46:50.381Z,47.65
2022-08-09T12:48:55.597Z,48.11
2022-08-09T12:51:00.021Z,46.68
2022-08-09T12:53:37.889Z,47.59
2022-08-09T12:56:15.669Z,46.47
2022-08-09T12:58:27.165Z,47.21
2022-08-09T13:00:43.330Z,47.06
2022-08-09T13:03:01.000Z,45.74
2022-08-09T13:05:04.172Z,44.64
2022-08-09T13:07:19.891Z,44.87
2022-08-09T13:09:31.393Z,46.71
2022-08-09T13:11:48.792Z,45.66
2022-08-09T13:14:40.760Z,45.56
2022-08-09T13:16:40.695Z,46.42
2022-08-09T13:18:54.241Z,43.58
2022-08-09T13:21:20.526Z,46.20
2022-08-09T13:24:15.963Z,43.98
2022-08-09T13:26:06.122Z,43.15
2022-08-09T13:28:24.472Z,42.02
2022-08-09T13:32:09.767Z,44.82
2022-08-09T13:33:06.944Z,43.79
2022-08-09T13:35:34.166Z,44.79
2022-08-09T13:37:51.182Z,45.68
2022-08-09T13:41:50.971Z,44.18
2022-08-09T13:42:21.767Z,45.68
2022-08-09T13:44:28.588Z,45.40
2022-08-09T13:47:13.017Z,45.15
2022-08-09T13:48:53.445Z,44.22
2022-08-09T13:51:14.407Z,45.95
2022-08-09T13:53:19.626Z,47.53
2022-08-09T13:55:50.105Z,46.36
2022-08-09T13:58:11.636Z,46.56
2022-08-09T14:00:18.972Z,46.40
2022-08-09T14:02:36.260Z,46.75
2022-08-09T14:04:59.861Z,46.42
2022-08-09T14:07:30.190Z,46.86
2022-08-09T14:10:07.639Z,49.32
2022-08-09T14:12:23.978Z,45.68
2022-08-09T14:14:29.903Z,46.49
2022-08-09T14:16:37.289Z,46.32
2022-08-09T14:18:58.235Z,47.44
2022-08-09T14:21:07.328Z,46.52
2022-08-09T14:23:39.952Z,47.02
2022-08-09T14:25:52.442Z,48.07
2022-08-09T14:27:59.043Z,46.61
2022-08-09T14:30:36.299Z,46.97
2022-08-09T14:32:44.679Z,46.10
2022-08-09T14:34:47.769Z,46.68
2022-08-09T14:37:09.938Z,45.21
2022-08-09T14:39:12.416Z,46.60
2022-08-09T14:41:24.092Z,45.36
2022-08-09T14:43:43.103Z,45.18
2022-08-09T14:46:59.035Z,45.58
2022-08-09T14:48:15.080Z,46.66
2022-08-09T14:50:22.977Z,45.87
2022-08-09T14:52:27.298Z,46.30
2022-08-09T14:54:29.983Z,46.85
2022-08-09T14:56:57.228Z,47.82
2022-08-09T14:59:11.327Z,46.84
2022-08-09T15:01:19.932Z,45.50
2022-08-09T15:03:42.302Z,46.46
2022-08-09T15:05:56.710Z,47.59
2022-08-09T15:08:00.353Z,46.14
2022-08-09T15:10:11.259Z,47.57
2022-08-09T15:12:21.427Z,48.34
2022-08-09T15:14:34.196Z,49.00
2022-08-09T15:16:36.376Z,48.66
2022-08-09T15:18:39.327Z,49.64
2022-08-09T15:21:58.254Z,49.02
2022-08-09T15:24:00.751Z,50.79
2022-08-09T15:25:53.597Z,49.34
2022-08-09T15:28:01.078Z,49.89
2022-08-09T15:30:48.901Z,51.53
2022-08-09T15:32:38.226Z,51.73
2022-08-09T15:34:40.637Z,52.43
2022-08-09T15:36:48.076Z,52.17
2022-08-09T15:38:50.485Z,53.67
2022-08-09T15:41:09.631Z,53.60
2022-08-09T15:43:41.077Z,51.09
2022-08-09T15:46:07.616Z,51.68
2022-08-09T15:48:28.372Z,50.98
2022-08-09T15:50:32.439Z,51.05
2022-08-09T15:52:40.021Z,50.69
2022-08-09T15:54:57.528Z,49.63
2022-08-09T15:56:59.663Z,50.51
2022-08-09T15:59:04.466Z,51.20
2022-08-09T16:01:09.343Z,50.42
2022-08-09T16:03:26.558Z,50.92
2022-08-09T16:05:47.841Z,50.93
2022-08-09T16:07:56.729Z,50.35
2022-08-09T16:10:05.172Z,50.71
2022-08-09T16:12:30.497Z,51.30
2022-08-09T16:14:35.056Z,51.21
2022-08-09T16:16:41.945Z,52.75
2022-08-09T16:18:58.166Z,51.77
2022-08-09T16:21:02.165Z,51.59
2022-08-09T16:23:05.451Z,52.24
2022-08-09T16:25:10.055Z,52.66
2022-08-09T16:27:14.616Z,53.38
2022-08-09T16:29:20.164Z,52.92
2022-08-09T16:32:10.395Z,53.89
2022-08-09T16:33:49.646Z,53.84
2022-08-09T16:35:57.324Z,54.51
2022-08-09T16:38:03.727Z,55.00
2022-08-09T16:40:10.052Z,55.52
2022-08-09T16:42:23.946Z,55.36
2022-08-09T16:44:37.402Z,56.45
2022-08-09T16:46:40.126Z,56.28
2022-08-09T16:49:10.313Z,57.00
2022-08-09T16:51:38.887Z,55.71
2022-08-09T16:54:25.087Z,56.92
2022-08-09T16:56:18.158Z,56.43
2022-08-09T16:58:35.870Z,56.37
2022-08-09T17:00:42.727Z,56.21
2022-08-09T17:02:46.887Z,56.43
2022-08-09T17:05:01.269Z,56.39
2022-08-09T17:08:45.475Z,56.81
2022-08-09T17:09:46.091Z,57.66
2022-08-09T17:12:09.158Z,58.10
2022-08-09T17:14:16.251Z,58.93
2022-08-09T17:16:39.239Z,58.58
2022-08-09T17:18:47.000Z,59.69
2022-08-09T17:20:53.188Z,60.44
2022-08-09T17:23:01.105Z,61.14
2022-08-09T17:25:12.275Z,61.13
2022-08-09T17:27:21.677Z,60.88
2022-08-09T17:29:24.677Z,60.41
2022-08-09T17:31:38.689Z,60.44
2022-08-09T17:33:47.212Z,59.86
2022-08-09T17:36:06.035Z,62.59
2022-08-09T17:38:34.167Z,62.54
2022-08-09T17:40:47.265Z,62.46
2022-08-09T17:42:55.501Z,63.36
2022-08-09T17:45:06.455Z,63.44
2022-08-09T17:47:19.822Z,63.82
2022-08-09T17:49:33.993Z,64.43
2022-08-09T17:51:42.118Z,65.37
2022-08-09T17:53:52.856Z,64.95
2022-08-09T17:56:03.256Z,65.11
2022-08-09T17:58:17.418Z,65.16
2022-08-09T18:00:46.429Z,65.45
2022-08-09T18:02:58.538Z,64.88
2022-08-09T18:05:08.656Z,65.51
2022-08-09T18:07:23.135Z,65.11
2022-08-09T18:09:41.127Z,67.84
2022-08-09T18:12:05.611Z,70.16
2022-08-09T18:14:16.517Z,73.32
2022-08-09T18:16:30.189Z,73.38
2022-08-09T18:18:43.179Z,73.44
2022-08-09T18:20:57.268Z,74.13
2022-08-09T18:23:05.328Z,75.09
2022-08-09T18:25:50.664Z,74.99
2022-08-09T18:28:03.701Z,75.33
2022-08-09T18:30:39.251Z,75.25
2022-08-09T18:32:54.284Z,75.59
2022-08-09T18:35:03.872Z,76.84
2022-08-09T18:37:48.686Z,75.52
2022-08-09T18:39:48.555Z,76.87
2022-08-09T18:41:53.928Z,78.28
2022-08-09T18:44:03.215Z,77.71
2022-08-09T18:46:46.856Z,78.60
2022-08-09T18:48:36.168Z,77.82
2022-08-09T18:50:40.266Z,79.22
2022-08-09T18:52:55.533Z,81.22
2022-08-09T18:54:59.532Z,79.58
2022-08-09T18:57:05.861Z,79.71
2022-08-09T18:59:12.832Z,80.13
2022-08-09T19:01:21.553Z,81.20
2022-08-09T19:03:25.988Z,79.54
2022-08-09T19:06:03.371Z,80.21
2022-08-09T19:08:10.609Z,81.74
2022-08-09T19:10:26.376Z,85.58
2022-08-09T19:12:36.672Z,86.02
2022-08-09T19:14:43.498Z,85.83
2022-08-09T19:16:50.249Z,85.37
2022-08-09T19:18:53.371Z,85.18
2022-08-09T19:21:02.685Z,85.27
2022-08-09T19:23:06.597Z,86.07
2022-08-09T19:26:02.094Z,85.60
2022-08-09T19:28:21.545Z,86.42
2022-08-09T19:30:32.875Z,86.11
2022-08-09T19:32:59.897Z,86.08
2022-08-09T19:35:13.770Z,86.17
2022-08-09T19:37:17.854Z,86.25
2022-08-09T19:40:02.996Z,86.61
2022-08-09T19:41:55.047Z,86.74
2022-08-09T19:44:08.481Z,87.03
2022-08-09T19:46:14.961Z,88.01
2022-08-09T19:49:02.133Z,88.30
2022-08-09T19:51:20.962Z,88.39
2022-08-09T19:53:24.560Z,88.28
2022-08-09T19:55:53.049Z,88.22
2022-08-09T19:58:16.358Z,85.08
2022-08-09T20:00:26.024Z,82.45
2022-08-09T20:04:10.484Z,82.08
2022-08-09T20:05:16.928Z,83.46
2022-08-09T20:07:59.618Z,82.66
2022-08-09T20:10:22.488Z,82.66
2022-08-09T20:12:39.828Z,82.07
2022-08-09T20:14:50.283Z,83.10
2022-08-09T20:16:59.275Z,83.40
2022-08-09T20:19:48.750Z,82.88
2022-08-09T20:21:54.986Z,84.08
2022-08-09T20:23:55.067Z,84.57
2022-08-09T20:25:58.054Z,85.05
2022-08-09T20:28:07.993Z,85.75
2022-08-09T20:30:17.924Z,85.43
2022-08-09T20:32:45.571Z,86.19
2022-08-09T20:35:30.501Z,86.07
2022-08-09T20:38:19.388Z,84.94
2022-08-09T20:40:15.812Z,85.74
2022-08-09T20:42:28.985Z,85.87
2022-08-09T20:44:36.410Z,86.58
2022-08-09T20:46:44.490Z,86.64
2022-08-09T20:48:47.206Z,85.17
2022-08-09T20:50:55.743Z,85.33
2022-08-09T20:53:02.646Z,85.96
2022-08-09T20:55:20.952Z,85.95
2022-08-09T20:57:32.086Z,85.89
2022-08-09T21:00:19.420Z,84.05
2022-08-09T21:02:17.835Z,83.59
2022-08-09T21:05:53.879Z,83.64
2022-08-09T21:06:55.733Z,81.74
2022-08-09T21:09:13.762Z,81.80
2022-08-09T21:13:59.426Z,82.52
2022-08-09T21:16:19.545Z,82.19
2022-08-09T21:18:29.758Z,82.26
2022-08-09T21:20:32.953Z,81.61
2022-08-09T21:22:42.716Z,81.28
2022-08-09T21:25:07.590Z,80.21
2022-08-09T21:27:51.687Z,81.69
2022-08-09T21:29:49.555Z,81.64
2022-08-09T21:31:52.991Z,81.32
2022-08-09T21:34:06.838Z,81.04
2022-08-09T21:36:33.616Z,80.06
2022-08-09T21:38:57.324Z,80.21
2022-08-09T21:41:04.609Z,79.63
2022-08-09T21:43:31.472Z,79.19
2022-08-09T21:45:49.900Z,79.12
2022-08-09T21:47:54.047Z,79.15
2022-08-09T21:50:04.207Z,80.13
2022-08-09T21:52:20.493Z,80.93
2022-08-09T21:54:51.095Z,81.27
2022-08-09T21:57:37.220Z,81.91
2022-08-09T21:59:48.401Z,82.86
2022-08-09T22:02:00.750Z,82.39
2022-08-09T22:04:12.422Z,81.59
2022-08-09T22:06:25.255Z,80.97
2022-08-09T22:08:35.033Z,81.04
2022-08-09T22:11:50.076Z,82.19
2022-08-09T22:13:07.288Z,83.07
2022-08-09T22:15:17.007Z,84.29
2022-08-09T22:17:19.209Z,83.97
2022-08-09T22:19:58.429Z,83.98
2022-08-09T22:21:54.519Z,84.13
2022-08-09T22:24:02.225Z,84.43
2022-08-09T22:26:12.573Z,84.29
2022-08-09T22:28:21.030Z,84.44
2022-08-09T22:30:33.454Z,84.67
2022-08-09T22:32:37.714Z,84.90
2022-08-09T22:34:44.791Z,84.10
2022-08-09T22:37:16.042Z,84.20
2022-08-09T22:39:55.448Z,84.43
2022-08-09T22:41:52.284Z,84.48
2022-08-09T22:44:01.151Z,84.98
2022-08-09T22:48:13.131Z,85.88
2022-08-09T22:48:52.025Z,87.73
2022-08-09T22:51:24.035Z,89.21
2022-08-09T22:53:44.502Z,89.96
2022-08-09T22:56:33.309Z,89.85
2022-08-09T22:59:05.662Z,89.92
2022-08-09T23:01:32.907Z,90.42
2022-08-09T23:04:03.956Z,90.74
2022-08-09T23:06:08.151Z,90.96
2022-08-09T23:08:42.725Z,90.92
2022-08-09T23:10:55.867Z,91.44
2022-08-09T23:13:12.938Z,90.89
2022-08-09T23:15:21.792Z,91.40
2022-08-09T23:17:43.951Z,92.81
2022-08-09T23:20:06.494Z,93.08
2022-08-09T23:22:09.588Z,93.38
2022-08-09T23:24:12.559Z,93.78
2022-08-09T23:26:18.361Z,94.13
2022-08-09T23:28:21.385Z,94.03
2022-08-09T23:30:25.382Z,94.55
2022-08-09T23:32:27.307Z,94.36
2022-08-09T23:34:30.224Z,95.31
2022-08-09T23:36:35.359Z,95.38
2022-08-09T23:38:48.480Z,94.84
2022-08-09T23:40:52.431Z,95.50
2022-08-09T23:42:55.344Z,95.90
2022-08-09T23:45:05.595Z,96.00
2022-08-09T23:47:17.173Z,96.28
2022-08-09T23:49:24.366Z,95.82
2022-08-09T23:51:27.825Z,95.34
2022-08-09T23:53:47.437Z,95.11
2022-08-09T23:56:17.405Z,95.04
2022-08-09T23:59:11.518Z,95.17
